Aviation Digital Data Service (ADDS)

Output produced by METARs form (1318 UTC 24 August 2019)
found at http://www.aviationweather.gov/metar/data/
 
Forecast for: SPQU (AREQUIPA/RODRIGU, PE)
Text: SPQU 241100Z 2412/2512 03006KT CAVOK TX22/2418Z TN08/2510Z
Forecast period: 1200 to 1430 UTC 24 August 2019
Forecast type: FROM: standard forecast or significant change
Winds: from the NNE (30 degrees) at 7 MPH (6 knots; 3.1 m/s)
Visibility: 6 or more miles 10+ km)
Ceiling: unknown
Clouds: missing
Weather: no significant weather forecast for this period
Text: FM241430 24005KT CAVOK
Forecast period: 1430 to 1800 UTC 24 August 2019
Forecast type: FROM: standard forecast or significant change
Winds: from the WSW (240 degrees) at 6 MPH (5 knots; 2.6 m/s)
Visibility: 6 or more miles 10+ km)
Ceiling: unknown
Clouds: missing
Weather: NSW  (no significant weather)
Text: FM241800 26010KT CAVOK
Forecast period: 1800 UTC 24 August 2019 to 1200 UTC 25 August 2019
Forecast type: FROM: standard forecast or significant change
Winds: from the W (260 degrees) at 12 MPH (10 knots; 5.1 m/s)
Visibility: 6 or more miles 10+ km)
Ceiling: unknown
Clouds: missing
Weather: NSW  (no significant weather)